Saturday, July 21, 2018, 9:05 PM EDT
Back to Local

KART, Watertown International Airport

Location: Dexter, NY, United States Lat: 43.983
Local Time: 9:05 PM EDT ( 1:05 GMT) Lon: -76.033
Time Zone: US/Eastern Elev: 324 ft

Show me the last for .
Show Decoded

2018-07-21 19:56 METAR KART 212356Z AUTO 16007KT 10SM BKN095 26/12 A2996 RMK AO2 SLP141 T02560122
                 10306 20256 53002 =
2018-07-21 18:56 METAR KART 212256Z AUTO 15006KT 10SM BKN110 26/11 A2996 RMK AO2 SLP139 T02610106
                 =
2018-07-21 17:56 METAR KART 212156Z AUTO 23003KT 10SM FEW120 27/15 A2995 RMK AO2 SLP139 T02720150
                 =
2018-07-21 16:56 METAR KART 212056Z AUTO 20003KT 10SM CLR 28/09 A2996 RMK AO2 SLP138 T02830094
                 56010 =
2018-07-21 15:56 METAR KART 211956Z AUTO 17009KT 10SM CLR 30/07 A2996 RMK AO2 SLP139 T03000072 =
2018-07-21 14:56 METAR KART 211856Z AUTO 15007KT 120V180 10SM CLR 29/07 A2997 RMK AO2 SLP142
                 T02940072 =
2018-07-21 13:56 METAR KART 211756Z AUTO 11008KT 10SM CLR 28/07 A2999 RMK AO2 SLP148 T02830067
                 10289 20206 58018 =
2018-07-21 12:56 METAR KART 211656Z AUTO 13007KT 10SM CLR 28/09 A3000 RMK AO2 SLP154 T02780089 =
2018-07-21 11:56 METAR KART 211556Z AUTO VRB06KT 10SM CLR 27/12 A3003 RMK AO2 SLP162 T02670117 =
2018-07-21 10:56 METAR KART 211456Z AUTO 13007KT 100V170 10SM CLR 26/12 A3004 RMK AO2 SLP166
                 T02560117 55002 =
2018-07-21 09:56 METAR KART 211356Z AUTO 15009G14KT 10SM CLR 24/13 A3003 RMK AO2 SLP166 T02440128
                 =
2018-07-21 08:56 METAR KART 211256Z AUTO 14008KT 10SM CLR 22/13 A3004 RMK AO2 SLP167 T02220133 =
2018-07-21 07:56 METAR KART 211156Z AUTO 14006KT 10SM CLR 21/13 A3004 RMK AO2 SLP168 T02060128
                 10211 20167 55000 =
2018-07-21 06:56 METAR KART 211056Z AUTO 11004KT 10SM CLR 19/13 A3004 RMK AO2 SLP168 T01890128 =
2018-07-21 05:56 METAR KART 210956Z AUTO 11005KT 10SM CLR 17/13 A3004 RMK AO2 SLP168 T01720128 =
2018-07-21 04:56 METAR KART 210856Z AUTO 12004KT 10SM CLR 18/14 A3005 RMK AO2 SLP169 T01780139
                 51007 =
2018-07-21 03:56 METAR KART 210756Z AUTO 14005KT 10SM CLR 19/14 A3004 RMK AO2 SLP168 T01890139 =
2018-07-21 02:56 METAR KART 210656Z AUTO 15005KT 10SM CLR 20/14 A3004 RMK AO2 SLP164 T02000144 =
2018-07-21 01:56 METAR KART 210556Z AUTO 14005KT 10SM CLR 20/14 A3002 RMK AO2 SLP161 T02000144
                 10272 20194 53006 =
2018-07-21 00:56 METAR KART 210456Z AUTO 12003KT 10SM CLR 20/14 A3002 RMK AO2 SLP159 T02000144
                 403110106 =
2018-07-20 23:56 METAR KART 210356Z AUTO 13004KT 10SM CLR 21/14 A3001 RMK AO2 SLP156 T02110144 =
2018-07-20 22:56 METAR KART 210256Z AUTO 14005KT 10SM CLR 21/14 A3001 RMK AO2 SLP156 T02110144
                 53004 =
2018-07-20 21:56 METAR KART 210156Z AUTO 16003KT 10SM CLR 21/13 A3001 RMK AO2 SLP156 T02110133 =

Support USWX by starting your Amazon purchase here.